sensor_id;sensor_type;location;lat;lon;timestamp;P1;durP1;ratioP1;P2;durP2;ratioP2
75488;SDS011;64069;46.396;48.102;2024-03-07T00:01:13;7.13;;;3.35;;
75488;SDS011;64069;46.396;48.102;2024-03-07T00:03:39;9.20;;;2.58;;
75488;SDS011;64069;46.396;48.102;2024-03-07T00:06:05;7.30;;;3.08;;
75488;SDS011;64069;46.396;48.102;2024-03-07T00:08:31;10.70;;;3.38;;
75488;SDS011;64069;46.396;48.102;2024-03-07T00:10:57;7.97;;;3.38;;
75488;SDS011;64069;46.396;48.102;2024-03-07T00:13:23;12.93;;;4.53;;
75488;SDS011;64069;46.396;48.102;2024-03-07T00:15:49;8.00;;;3.65;;
75488;SDS011;64069;46.396;48.102;2024-03-07T00:18:15;9.85;;;3.70;;
75488;SDS011;64069;46.396;48.102;2024-03-07T00:20:41;9.25;;;3.55;;
75488;SDS011;64069;46.396;48.102;2024-03-07T00:23:08;8.02;;;3.35;;
75488;SDS011;64069;46.396;48.102;2024-03-07T00:25:34;10.02;;;3.30;;
75488;SDS011;64069;46.396;48.102;2024-03-07T00:28:01;4.97;;;2.47;;
75488;SDS011;64069;46.396;48.102;2024-03-07T00:30:29;9.30;;;3.92;;
75488;SDS011;64069;46.396;48.102;2024-03-07T00:32:55;8.60;;;3.05;;
75488;SDS011;64069;46.396;48.102;2024-03-07T00:35:21;7.57;;;2.75;;
75488;SDS011;64069;46.396;48.102;2024-03-07T00:37:47;9.35;;;3.95;;
75488;SDS011;64069;46.396;48.102;2024-03-07T00:40:14;9.13;;;3.13;;
75488;SDS011;64069;46.396;48.102;2024-03-07T00:42:40;8.02;;;3.05;;
75488;SDS011;64069;46.396;48.102;2024-03-07T00:45:06;6.70;;;2.35;;
75488;SDS011;64069;46.396;48.102;2024-03-07T00:47:32;12.38;;;4.32;;
75488;SDS011;64069;46.396;48.102;2024-03-07T00:49:59;15.35;;;4.72;;
75488;SDS011;64069;46.396;48.102;2024-03-07T00:52:25;7.45;;;3.20;;
75488;SDS011;64069;46.396;48.102;2024-03-07T00:54:51;5.75;;;1.92;;
75488;SDS011;64069;46.396;48.102;2024-03-07T00:57:17;16.13;;;6.03;;
75488;SDS011;64069;46.396;48.102;2024-03-07T00:59:43;11.98;;;4.63;;
75488;SDS011;64069;46.396;48.102;2024-03-07T01:02:09;8.23;;;3.65;;
75488;SDS011;64069;46.396;48.102;2024-03-07T01:04:35;10.27;;;3.10;;
75488;SDS011;64069;46.396;48.102;2024-03-07T01:07:01;10.88;;;3.40;;
75488;SDS011;64069;46.396;48.102;2024-03-07T01:09:27;7.78;;;3.33;;
75488;SDS011;64069;46.396;48.102;2024-03-07T01:11:54;10.02;;;3.47;;
75488;SDS011;64069;46.396;48.102;2024-03-07T01:14:20;8.38;;;3.80;;
75488;SDS011;64069;46.396;48.102;2024-03-07T01:16:47;13.55;;;4.10;;
75488;SDS011;64069;46.396;48.102;2024-03-07T01:19:14;13.40;;;5.38;;
75488;SDS011;64069;46.396;48.102;2024-03-07T01:21:40;9.32;;;4.82;;
75488;SDS011;64069;46.396;48.102;2024-03-07T01:24:06;6.95;;;3.38;;
75488;SDS011;64069;46.396;48.102;2024-03-07T01:26:32;7.93;;;2.88;;
75488;SDS011;64069;46.396;48.102;2024-03-07T01:29:02;15.07;;;4.13;;
75488;SDS011;64069;46.396;48.102;2024-03-07T01:31:27;6.65;;;3.03;;
75488;SDS011;64069;46.396;48.102;2024-03-07T01:33:54;10.90;;;3.97;;
75488;SDS011;64069;46.396;48.102;2024-03-07T01:36:20;12.77;;;4.65;;
75488;SDS011;64069;46.396;48.102;2024-03-07T01:38:47;14.50;;;5.72;;
75488;SDS011;64069;46.396;48.102;2024-03-07T01:41:13;11.15;;;4.00;;
75488;SDS011;64069;46.396;48.102;2024-03-07T01:43:41;8.77;;;3.13;;
75488;SDS011;64069;46.396;48.102;2024-03-07T01:46:09;7.20;;;3.63;;
75488;SDS011;64069;46.396;48.102;2024-03-07T01:48:39;10.10;;;3.53;;
75488;SDS011;64069;46.396;48.102;2024-03-07T01:51:05;10.75;;;3.90;;
75488;SDS011;64069;46.396;48.102;2024-03-07T01:53:32;7.05;;;3.22;;
75488;SDS011;64069;46.396;48.102;2024-03-07T01:55:59;8.23;;;3.58;;
75488;SDS011;64069;46.396;48.102;2024-03-07T01:58:29;10.90;;;3.28;;
75488;SDS011;64069;46.396;48.102;2024-03-07T02:00:57;16.70;;;5.40;;
75488;SDS011;64069;46.396;48.102;2024-03-07T02:03:27;15.55;;;4.15;;
75488;SDS011;64069;46.396;48.102;2024-03-07T02:05:53;15.10;;;4.88;;
75488;SDS011;64069;46.396;48.102;2024-03-07T02:08:24;11.05;;;4.20;;
75488;SDS011;64069;46.396;48.102;2024-03-07T02:10:50;13.55;;;5.18;;
75488;SDS011;64069;46.396;48.102;2024-03-07T02:13:17;9.63;;;3.47;;
75488;SDS011;64069;46.396;48.102;2024-03-07T02:15:43;18.48;;;4.00;;
75488;SDS011;64069;46.396;48.102;2024-03-07T02:18:10;18.05;;;3.65;;
75488;SDS011;64069;46.396;48.102;2024-03-07T02:20:36;11.35;;;5.00;;
75488;SDS011;64069;46.396;48.102;2024-03-07T02:23:05;8.63;;;3.40;;
75488;SDS011;64069;46.396;48.102;2024-03-07T02:25:31;15.25;;;4.82;;
75488;SDS011;64069;46.396;48.102;2024-03-07T02:27:58;17.90;;;4.45;;
75488;SDS011;64069;46.396;48.102;2024-03-07T02:30:24;18.38;;;4.28;;
75488;SDS011;64069;46.396;48.102;2024-03-07T02:32:50;9.15;;;3.33;;
75488;SDS011;64069;46.396;48.102;2024-03-07T02:35:20;14.23;;;4.82;;
75488;SDS011;64069;46.396;48.102;2024-03-07T02:37:46;21.02;;;6.30;;
75488;SDS011;64069;46.396;48.102;2024-03-07T02:40:12;15.57;;;4.93;;
75488;SDS011;64069;46.396;48.102;2024-03-07T02:42:39;9.55;;;3.30;;
75488;SDS011;64069;46.396;48.102;2024-03-07T02:45:05;15.73;;;4.88;;
75488;SDS011;64069;46.396;48.102;2024-03-07T02:47:31;9.98;;;3.47;;
75488;SDS011;64069;46.396;48.102;2024-03-07T02:49:57;12.35;;;4.60;;
75488;SDS011;64069;46.396;48.102;2024-03-07T02:52:23;12.48;;;3.72;;
75488;SDS011;64069;46.396;48.102;2024-03-07T02:54:49;18.90;;;6.97;;
75488;SDS011;64069;46.396;48.102;2024-03-07T02:57:15;12.73;;;4.03;;
75488;SDS011;64069;46.396;48.102;2024-03-07T02:59:41;14.50;;;5.78;;
75488;SDS011;64069;46.396;48.102;2024-03-07T03:02:07;17.52;;;6.53;;
75488;SDS011;64069;46.396;48.102;2024-03-07T03:04:33;10.52;;;4.18;;
75488;SDS011;64069;46.396;48.102;2024-03-07T03:06:59;10.63;;;4.28;;
75488;SDS011;64069;46.396;48.102;2024-03-07T03:09:25;18.13;;;6.00;;
75488;SDS011;64069;46.396;48.102;2024-03-07T03:11:53;12.55;;;4.80;;
75488;SDS011;64069;46.396;48.102;2024-03-07T03:14:19;17.67;;;6.70;;
75488;SDS011;64069;46.396;48.102;2024-03-07T03:16:46;11.68;;;4.60;;
75488;SDS011;64069;46.396;48.102;2024-03-07T03:19:12;13.40;;;5.00;;
75488;SDS011;64069;46.396;48.102;2024-03-07T03:21:38;21.73;;;7.75;;
75488;SDS011;64069;46.396;48.102;2024-03-07T03:24:05;15.82;;;6.07;;
75488;SDS011;64069;46.396;48.102;2024-03-07T03:26:32;16.58;;;5.43;;
75488;SDS011;64069;46.396;48.102;2024-03-07T03:28:58;13.38;;;5.00;;
75488;SDS011;64069;46.396;48.102;2024-03-07T03:31:25;12.23;;;5.85;;
75488;SDS011;64069;46.396;48.102;2024-03-07T03:33:51;18.15;;;6.38;;
75488;SDS011;64069;46.396;48.102;2024-03-07T03:36:17;15.13;;;5.60;;
75488;SDS011;64069;46.396;48.102;2024-03-07T03:38:44;20.48;;;7.75;;
75488;SDS011;64069;46.396;48.102;2024-03-07T03:41:14;18.67;;;6.85;;
75488;SDS011;64069;46.396;48.102;2024-03-07T03:43:41;19.15;;;6.93;;
75488;SDS011;64069;46.396;48.102;2024-03-07T03:46:11;15.02;;;5.70;;
75488;SDS011;64069;46.396;48.102;2024-03-07T03:48:40;15.40;;;5.45;;
75488;SDS011;64069;46.396;48.102;2024-03-07T03:51:07;17.20;;;6.45;;
75488;SDS011;64069;46.396;48.102;2024-03-07T03:53:37;19.70;;;6.78;;
75488;SDS011;64069;46.396;48.102;2024-03-07T03:56:03;16.45;;;7.07;;
75488;SDS011;64069;46.396;48.102;2024-03-07T03:58:32;22.55;;;7.28;;
75488;SDS011;64069;46.396;48.102;2024-03-07T04:00:59;23.33;;;7.65;;
75488;SDS011;64069;46.396;48.102;2024-03-07T04:03:25;16.05;;;5.68;;
75488;SDS011;64069;46.396;48.102;2024-03-07T04:05:52;19.42;;;6.72;;
75488;SDS011;64069;46.396;48.102;2024-03-07T04:08:18;16.90;;;5.97;;
75488;SDS011;64069;46.396;48.102;2024-03-07T04:10:45;22.65;;;7.85;;
75488;SDS011;64069;46.396;48.102;2024-03-07T04:13:11;26.20;;;9.15;;
75488;SDS011;64069;46.396;48.102;2024-03-07T04:15:38;10.48;;;4.25;;
75488;SDS011;64069;46.396;48.102;2024-03-07T04:18:04;18.92;;;7.07;;
75488;SDS011;64069;46.396;48.102;2024-03-07T04:20:30;18.70;;;7.68;;
75488;SDS011;64069;46.396;48.102;2024-03-07T04:22:56;22.15;;;8.93;;
75488;SDS011;64069;46.396;48.102;2024-03-07T04:25:22;14.82;;;4.93;;
75488;SDS011;64069;46.396;48.102;2024-03-07T04:27:50;21.40;;;8.07;;
75488;SDS011;64069;46.396;48.102;2024-03-07T04:30:16;20.63;;;6.85;;
75488;SDS011;64069;46.396;48.102;2024-03-07T04:32:42;16.48;;;5.95;;
75488;SDS011;64069;46.396;48.102;2024-03-07T04:35:08;18.90;;;7.15;;
75488;SDS011;64069;46.396;48.102;2024-03-07T04:37:37;15.75;;;5.47;;
75488;SDS011;64069;46.396;48.102;2024-03-07T04:40:06;19.38;;;6.03;;
75488;SDS011;64069;46.396;48.102;2024-03-07T04:42:52;15.30;;;6.03;;
75488;SDS011;64069;46.396;48.102;2024-03-07T04:45:29;13.32;;;5.28;;
75488;SDS011;64069;46.396;48.102;2024-03-07T04:47:56;16.23;;;6.45;;
75488;SDS011;64069;46.396;48.102;2024-03-07T04:50:22;15.60;;;5.63;;
75488;SDS011;64069;46.396;48.102;2024-03-07T04:52:48;17.75;;;6.07;;
75488;SDS011;64069;46.396;48.102;2024-03-07T04:55:14;18.67;;;6.90;;
75488;SDS011;64069;46.396;48.102;2024-03-07T04:57:40;24.30;;;9.82;;
75488;SDS011;64069;46.396;48.102;2024-03-07T05:00:07;14.90;;;5.65;;
75488;SDS011;64069;46.396;48.102;2024-03-07T05:02:39;17.75;;;7.50;;
75488;SDS011;64069;46.396;48.102;2024-03-07T05:05:06;28.35;;;11.10;;
75488;SDS011;64069;46.396;48.102;2024-03-07T05:07:33;23.63;;;9.23;;
75488;SDS011;64069;46.396;48.102;2024-03-07T05:10:01;14.50;;;5.13;;
75488;SDS011;64069;46.396;48.102;2024-03-07T05:12:30;18.02;;;6.72;;
75488;SDS011;64069;46.396;48.102;2024-03-07T05:14:56;16.95;;;6.25;;
75488;SDS011;64069;46.396;48.102;2024-03-07T05:17:22;17.02;;;5.93;;
75488;SDS011;64069;46.396;48.102;2024-03-07T05:19:48;24.23;;;7.43;;
75488;SDS011;64069;46.396;48.102;2024-03-07T05:22:15;16.80;;;5.22;;
75488;SDS011;64069;46.396;48.102;2024-03-07T05:24:42;21.10;;;7.25;;
75488;SDS011;64069;46.396;48.102;2024-03-07T05:27:08;18.27;;;6.45;;
75488;SDS011;64069;46.396;48.102;2024-03-07T05:29:37;22.00;;;9.75;;
75488;SDS011;64069;46.396;48.102;2024-03-07T05:32:20;25.35;;;9.48;;
75488;SDS011;64069;46.396;48.102;2024-03-07T05:34:48;17.10;;;6.60;;
75488;SDS011;64069;46.396;48.102;2024-03-07T05:37:14;19.83;;;6.68;;
75488;SDS011;64069;46.396;48.102;2024-03-07T05:39:40;16.50;;;6.65;;
75488;SDS011;64069;46.396;48.102;2024-03-07T05:42:06;22.48;;;9.45;;
75488;SDS011;64069;46.396;48.102;2024-03-07T05:44:33;22.30;;;7.88;;
75488;SDS011;64069;46.396;48.102;2024-03-07T05:46:59;12.23;;;5.47;;
75488;SDS011;64069;46.396;48.102;2024-03-07T05:49:26;19.23;;;8.13;;
75488;SDS011;64069;46.396;48.102;2024-03-07T05:51:51;16.10;;;7.22;;
75488;SDS011;64069;46.396;48.102;2024-03-07T05:54:17;16.83;;;6.35;;
75488;SDS011;64069;46.396;48.102;2024-03-07T05:56:43;16.73;;;6.63;;
75488;SDS011;64069;46.396;48.102;2024-03-07T06:02:04;16.50;;;6.00;;
75488;SDS011;64069;46.396;48.102;2024-03-07T06:04:30;18.67;;;5.75;;
75488;SDS011;64069;46.396;48.102;2024-03-07T06:06:57;15.95;;;5.53;;
75488;SDS011;64069;46.396;48.102;2024-03-07T06:09:23;12.10;;;5.65;;
75488;SDS011;64069;46.396;48.102;2024-03-07T06:11:49;22.73;;;5.60;;
75488;SDS011;64069;46.396;48.102;2024-03-07T06:14:15;18.73;;;5.70;;
75488;SDS011;64069;46.396;48.102;2024-03-07T06:16:42;18.38;;;5.57;;
75488;SDS011;64069;46.396;48.102;2024-03-07T06:19:09;15.55;;;6.35;;
75488;SDS011;64069;46.396;48.102;2024-03-07T06:21:36;34.90;;;11.02;;
75488;SDS011;64069;46.396;48.102;2024-03-07T06:24:04;20.52;;;7.80;;
75488;SDS011;64069;46.396;48.102;2024-03-07T06:26:33;21.77;;;6.40;;
75488;SDS011;64069;46.396;48.102;2024-03-07T06:29:03;12.13;;;4.55;;
75488;SDS011;64069;46.396;48.102;2024-03-07T06:31:33;22.05;;;6.20;;
75488;SDS011;64069;46.396;48.102;2024-03-07T06:34:00;14.43;;;6.88;;
75488;SDS011;64069;46.396;48.102;2024-03-07T06:36:26;18.70;;;9.00;;
75488;SDS011;64069;46.396;48.102;2024-03-07T06:38:53;18.60;;;6.35;;
75488;SDS011;64069;46.396;48.102;2024-03-07T06:41:19;17.00;;;6.25;;
75488;SDS011;64069;46.396;48.102;2024-03-07T06:43:45;13.32;;;6.88;;
75488;SDS011;64069;46.396;48.102;2024-03-07T06:46:12;21.42;;;8.57;;
75488;SDS011;64069;46.396;48.102;2024-03-07T06:48:40;17.63;;;6.85;;
75488;SDS011;64069;46.396;48.102;2024-03-07T06:51:10;18.70;;;7.47;;
75488;SDS011;64069;46.396;48.102;2024-03-07T06:53:36;21.02;;;6.53;;
75488;SDS011;64069;46.396;48.102;2024-03-07T06:56:02;14.00;;;5.40;;
75488;SDS011;64069;46.396;48.102;2024-03-07T06:58:28;17.85;;;6.70;;
75488;SDS011;64069;46.396;48.102;2024-03-07T07:00:54;11.75;;;5.72;;
75488;SDS011;64069;46.396;48.102;2024-03-07T07:03:20;9.45;;;4.13;;
75488;SDS011;64069;46.396;48.102;2024-03-07T07:05:48;14.43;;;5.97;;
75488;SDS011;64069;46.396;48.102;2024-03-07T07:08:14;21.33;;;6.75;;
75488;SDS011;64069;46.396;48.102;2024-03-07T07:10:41;9.77;;;4.07;;
75488;SDS011;64069;46.396;48.102;2024-03-07T07:13:08;27.50;;;7.38;;
75488;SDS011;64069;46.396;48.102;2024-03-07T07:15:34;20.88;;;7.32;;
75488;SDS011;64069;46.396;48.102;2024-03-07T07:18:02;16.98;;;5.50;;
75488;SDS011;64069;46.396;48.102;2024-03-07T07:20:29;13.02;;;4.18;;
75488;SDS011;64069;46.396;48.102;2024-03-07T07:22:55;18.30;;;6.97;;
75488;SDS011;64069;46.396;48.102;2024-03-07T07:25:23;15.20;;;5.72;;
75488;SDS011;64069;46.396;48.102;2024-03-07T07:27:50;25.88;;;7.50;;
75488;SDS011;64069;46.396;48.102;2024-03-07T07:30:18;38.05;;;5.78;;
75488;SDS011;64069;46.396;48.102;2024-03-07T07:32:48;12.40;;;4.82;;
75488;SDS011;64069;46.396;48.102;2024-03-07T07:35:15;9.13;;;3.50;;
75488;SDS011;64069;46.396;48.102;2024-03-07T07:37:41;17.13;;;4.07;;
75488;SDS011;64069;46.396;48.102;2024-03-07T07:40:11;15.65;;;4.13;;
75488;SDS011;64069;46.396;48.102;2024-03-07T07:42:40;14.75;;;6.47;;
75488;SDS011;64069;46.396;48.102;2024-03-07T07:45:10;13.90;;;4.85;;
75488;SDS011;64069;46.396;48.102;2024-03-07T07:47:47;14.95;;;4.93;;
75488;SDS011;64069;46.396;48.102;2024-03-07T07:50:17;13.23;;;4.70;;
75488;SDS011;64069;46.396;48.102;2024-03-07T07:55:19;15.60;;;6.88;;
75488;SDS011;64069;46.396;48.102;2024-03-07T07:57:55;13.27;;;6.38;;
75488;SDS011;64069;46.396;48.102;2024-03-07T08:00:23;31.05;;;8.20;;
75488;SDS011;64069;46.396;48.102;2024-03-07T08:05:19;10.35;;;3.45;;
75488;SDS011;64069;46.396;48.102;2024-03-07T08:07:51;10.07;;;3.47;;
75488;SDS011;64069;46.396;48.102;2024-03-07T08:10:18;6.05;;;3.00;;
75488;SDS011;64069;46.396;48.102;2024-03-07T08:12:46;9.18;;;3.85;;
75488;SDS011;64069;46.396;48.102;2024-03-07T08:15:12;17.15;;;4.55;;
75488;SDS011;64069;46.396;48.102;2024-03-07T08:17:43;12.23;;;4.50;;
75488;SDS011;64069;46.396;48.102;2024-03-07T08:20:10;15.25;;;4.45;;
75488;SDS011;64069;46.396;48.102;2024-03-07T08:22:38;14.13;;;4.30;;
75488;SDS011;64069;46.396;48.102;2024-03-07T08:25:06;9.80;;;3.78;;
75488;SDS011;64069;46.396;48.102;2024-03-07T08:27:44;9.82;;;3.28;;
75488;SDS011;64069;46.396;48.102;2024-03-07T08:30:11;17.13;;;3.08;;
75488;SDS011;64069;46.396;48.102;2024-03-07T08:32:44;10.77;;;4.15;;
75488;SDS011;64069;46.396;48.102;2024-03-07T08:35:11;12.55;;;5.18;;
75488;SDS011;64069;46.396;48.102;2024-03-07T08:37:41;9.50;;;4.05;;
75488;SDS011;64069;46.396;48.102;2024-03-07T08:42:36;10.60;;;4.03;;
75488;SDS011;64069;46.396;48.102;2024-03-07T08:45:03;17.50;;;5.05;;
75488;SDS011;64069;46.396;48.102;2024-03-07T08:47:36;25.90;;;7.22;;
75488;SDS011;64069;46.396;48.102;2024-03-07T08:50:03;30.35;;;7.68;;
75488;SDS011;64069;46.396;48.102;2024-03-07T08:52:33;9.50;;;3.85;;
75488;SDS011;64069;46.396;48.102;2024-03-07T08:55:02;10.93;;;3.38;;
75488;SDS011;64069;46.396;48.102;2024-03-07T08:57:29;10.68;;;4.40;;
75488;SDS011;64069;46.396;48.102;2024-03-07T08:59:56;21.13;;;7.53;;
75488;SDS011;64069;46.396;48.102;2024-03-07T09:02:22;21.13;;;7.70;;
75488;SDS011;64069;46.396;48.102;2024-03-07T09:04:49;12.02;;;3.78;;
75488;SDS011;64069;46.396;48.102;2024-03-07T09:07:15;8.52;;;4.03;;
75488;SDS011;64069;46.396;48.102;2024-03-07T09:09:42;7.80;;;2.92;;
75488;SDS011;64069;46.396;48.102;2024-03-07T09:12:11;7.70;;;3.00;;
75488;SDS011;64069;46.396;48.102;2024-03-07T09:14:37;11.65;;;4.55;;
75488;SDS011;64069;46.396;48.102;2024-03-07T09:17:04;12.13;;;4.75;;
75488;SDS011;64069;46.396;48.102;2024-03-07T09:19:33;16.23;;;5.60;;
75488;SDS011;64069;46.396;48.102;2024-03-07T09:21:59;16.88;;;5.03;;
75488;SDS011;64069;46.396;48.102;2024-03-07T09:24:25;13.52;;;4.07;;
75488;SDS011;64069;46.396;48.102;2024-03-07T09:26:51;11.05;;;3.85;;
75488;SDS011;64069;46.396;48.102;2024-03-07T09:29:18;11.02;;;4.18;;
75488;SDS011;64069;46.396;48.102;2024-03-07T09:31:53;12.80;;;3.80;;
75488;SDS011;64069;46.396;48.102;2024-03-07T09:34:20;13.38;;;3.75;;
75488;SDS011;64069;46.396;48.102;2024-03-07T09:36:47;14.65;;;4.38;;
75488;SDS011;64069;46.396;48.102;2024-03-07T09:39:14;11.82;;;5.20;;
75488;SDS011;64069;46.396;48.102;2024-03-07T09:41:44;18.20;;;4.03;;
75488;SDS011;64069;46.396;48.102;2024-03-07T09:44:14;11.32;;;4.80;;
75488;SDS011;64069;46.396;48.102;2024-03-07T09:46:48;7.93;;;3.67;;
75488;SDS011;64069;46.396;48.102;2024-03-07T09:49:15;9.05;;;3.47;;
75488;SDS011;64069;46.396;48.102;2024-03-07T09:51:43;17.48;;;4.32;;
75488;SDS011;64069;46.396;48.102;2024-03-07T09:54:10;6.93;;;3.03;;
75488;SDS011;64069;46.396;48.102;2024-03-07T09:56:37;16.20;;;4.50;;
75488;SDS011;64069;46.396;48.102;2024-03-07T09:59:05;9.27;;;2.97;;
75488;SDS011;64069;46.396;48.102;2024-03-07T10:04:03;8.65;;;3.13;;
75488;SDS011;64069;46.396;48.102;2024-03-07T10:06:38;9.73;;;3.50;;
75488;SDS011;64069;46.396;48.102;2024-03-07T10:09:07;16.45;;;2.83;;
75488;SDS011;64069;46.396;48.102;2024-03-07T10:11:33;8.52;;;3.13;;
75488;SDS011;64069;46.396;48.102;2024-03-07T10:14:00;12.60;;;3.30;;
75488;SDS011;64069;46.396;48.102;2024-03-07T10:16:28;7.72;;;3.60;;
75488;SDS011;64069;46.396;48.102;2024-03-07T10:18:54;11.13;;;4.55;;
75488;SDS011;64069;46.396;48.102;2024-03-07T10:21:21;10.90;;;3.83;;
75488;SDS011;64069;46.396;48.102;2024-03-07T10:23:49;9.82;;;3.08;;
75488;SDS011;64069;46.396;48.102;2024-03-07T10:26:18;9.20;;;3.50;;
75488;SDS011;64069;46.396;48.102;2024-03-07T10:28:45;4.72;;;2.33;;
75488;SDS011;64069;46.396;48.102;2024-03-07T10:31:11;9.88;;;2.97;;
75488;SDS011;64069;46.396;48.102;2024-03-07T10:33:57;7.55;;;2.72;;
75488;SDS011;64069;46.396;48.102;2024-03-07T10:36:24;10.70;;;3.47;;
75488;SDS011;64069;46.396;48.102;2024-03-07T10:38:50;9.85;;;3.83;;
75488;SDS011;64069;46.396;48.102;2024-03-07T10:41:20;11.10;;;4.07;;
75488;SDS011;64069;46.396;48.102;2024-03-07T10:43:53;9.65;;;3.13;;
75488;SDS011;64069;46.396;48.102;2024-03-07T10:46:22;20.83;;;4.82;;
75488;SDS011;64069;46.396;48.102;2024-03-07T10:48:51;5.97;;;2.78;;
75488;SDS011;64069;46.396;48.102;2024-03-07T10:51:32;17.98;;;4.88;;
75488;SDS011;64069;46.396;48.102;2024-03-07T10:54:07;7.90;;;3.30;;
75488;SDS011;64069;46.396;48.102;2024-03-07T10:59:19;15.82;;;4.35;;
75488;SDS011;64069;46.396;48.102;2024-03-07T11:04:32;8.05;;;3.78;;
75488;SDS011;64069;46.396;48.102;2024-03-07T11:07:00;11.93;;;4.25;;
75488;SDS011;64069;46.396;48.102;2024-03-07T11:09:26;10.15;;;4.50;;
75488;SDS011;64069;46.396;48.102;2024-03-07T11:11:58;13.88;;;6.05;;
75488;SDS011;64069;46.396;48.102;2024-03-07T11:14:29;8.23;;;3.67;;
75488;SDS011;64069;46.396;48.102;2024-03-07T11:16:55;17.88;;;4.03;;
75488;SDS011;64069;46.396;48.102;2024-03-07T11:19:28;10.55;;;3.55;;
75488;SDS011;64069;46.396;48.102;2024-03-07T11:22:02;10.63;;;2.80;;
75488;SDS011;64069;46.396;48.102;2024-03-07T11:24:41;10.38;;;2.78;;
75488;SDS011;64069;46.396;48.102;2024-03-07T11:27:11;11.68;;;4.38;;
75488;SDS011;64069;46.396;48.102;2024-03-07T11:29:49;17.77;;;4.03;;
75488;SDS011;64069;46.396;48.102;2024-03-07T11:32:19;13.02;;;4.05;;
75488;SDS011;64069;46.396;48.102;2024-03-07T11:34:48;13.77;;;3.67;;
75488;SDS011;64069;46.396;48.102;2024-03-07T11:37:37;8.05;;;3.58;;
75488;SDS011;64069;46.396;48.102;2024-03-07T11:40:06;8.75;;;3.53;;
75488;SDS011;64069;46.396;48.102;2024-03-07T11:42:34;8.93;;;3.13;;
75488;SDS011;64069;46.396;48.102;2024-03-07T11:45:01;9.90;;;3.58;;
75488;SDS011;64069;46.396;48.102;2024-03-07T11:47:38;13.02;;;3.50;;
75488;SDS011;64069;46.396;48.102;2024-03-07T11:50:05;6.68;;;2.67;;
75488;SDS011;64069;46.396;48.102;2024-03-07T11:52:37;13.85;;;3.75;;
75488;SDS011;64069;46.396;48.102;2024-03-07T11:55:07;7.70;;;3.60;;
75488;SDS011;64069;46.396;48.102;2024-03-07T11:57:33;11.80;;;3.15;;
75488;SDS011;64069;46.396;48.102;2024-03-07T12:00:00;12.82;;;5.57;;
75488;SDS011;64069;46.396;48.102;2024-03-07T12:02:38;11.65;;;4.05;;
75488;SDS011;64069;46.396;48.102;2024-03-07T12:05:05;8.98;;;3.63;;
75488;SDS011;64069;46.396;48.102;2024-03-07T12:07:31;11.35;;;4.20;;
75488;SDS011;64069;46.396;48.102;2024-03-07T12:09:59;7.38;;;2.95;;
75488;SDS011;64069;46.396;48.102;2024-03-07T12:12:29;9.77;;;3.17;;
75488;SDS011;64069;46.396;48.102;2024-03-07T12:14:55;6.93;;;3.65;;
75488;SDS011;64069;46.396;48.102;2024-03-07T12:17:22;12.35;;;5.38;;
75488;SDS011;64069;46.396;48.102;2024-03-07T12:19:49;9.82;;;4.28;;
75488;SDS011;64069;46.396;48.102;2024-03-07T12:22:21;19.58;;;8.63;;
75488;SDS011;64069;46.396;48.102;2024-03-07T12:25:00;17.08;;;6.80;;
75488;SDS011;64069;46.396;48.102;2024-03-07T12:27:28;10.52;;;4.63;;
75488;SDS011;64069;46.396;48.102;2024-03-07T12:29:54;11.88;;;4.00;;
75488;SDS011;64069;46.396;48.102;2024-03-07T12:32:21;9.15;;;4.18;;
75488;SDS011;64069;46.396;48.102;2024-03-07T12:34:46;11.52;;;3.95;;
75488;SDS011;64069;46.396;48.102;2024-03-07T12:37:13;14.68;;;3.55;;
75488;SDS011;64069;46.396;48.102;2024-03-07T12:39:42;10.00;;;3.78;;
75488;SDS011;64069;46.396;48.102;2024-03-07T12:42:17;11.73;;;4.57;;
75488;SDS011;64069;46.396;48.102;2024-03-07T12:44:44;9.93;;;3.30;;
75488;SDS011;64069;46.396;48.102;2024-03-07T12:47:12;11.25;;;3.22;;
75488;SDS011;64069;46.396;48.102;2024-03-07T12:49:39;14.35;;;3.67;;
75488;SDS011;64069;46.396;48.102;2024-03-07T12:52:06;9.32;;;3.30;;
75488;SDS011;64069;46.396;48.102;2024-03-07T12:54:35;10.10;;;3.63;;
75488;SDS011;64069;46.396;48.102;2024-03-07T12:57:08;8.75;;;3.67;;
75488;SDS011;64069;46.396;48.102;2024-03-07T12:59:40;6.88;;;2.72;;
75488;SDS011;64069;46.396;48.102;2024-03-07T13:02:10;10.73;;;5.07;;
75488;SDS011;64069;46.396;48.102;2024-03-07T13:04:37;11.07;;;4.00;;
75488;SDS011;64069;46.396;48.102;2024-03-07T13:07:04;12.57;;;4.72;;
75488;SDS011;64069;46.396;48.102;2024-03-07T13:09:33;13.82;;;4.63;;
75488;SDS011;64069;46.396;48.102;2024-03-07T13:11:59;9.88;;;3.55;;
75488;SDS011;64069;46.396;48.102;2024-03-07T13:14:26;6.60;;;3.40;;
75488;SDS011;64069;46.396;48.102;2024-03-07T13:19:28;8.85;;;2.97;;
75488;SDS011;64069;46.396;48.102;2024-03-07T13:21:55;6.95;;;2.88;;
75488;SDS011;64069;46.396;48.102;2024-03-07T13:24:25;10.18;;;4.20;;
75488;SDS011;64069;46.396;48.102;2024-03-07T13:26:53;11.20;;;3.92;;
75488;SDS011;64069;46.396;48.102;2024-03-07T13:29:19;9.73;;;3.05;;
75488;SDS011;64069;46.396;48.102;2024-03-07T13:34:34;24.80;;;4.68;;
75488;SDS011;64069;46.396;48.102;2024-03-07T13:37:02;12.68;;;3.92;;
75488;SDS011;64069;46.396;48.102;2024-03-07T13:39:29;8.80;;;3.13;;
75488;SDS011;64069;46.396;48.102;2024-03-07T13:41:55;6.15;;;2.55;;
75488;SDS011;64069;46.396;48.102;2024-03-07T13:44:21;9.18;;;3.92;;
75488;SDS011;64069;46.396;48.102;2024-03-07T13:46:48;9.07;;;3.40;;
75488;SDS011;64069;46.396;48.102;2024-03-07T13:49:15;10.35;;;3.55;;
75488;SDS011;64069;46.396;48.102;2024-03-07T13:51:43;8.90;;;3.30;;
75488;SDS011;64069;46.396;48.102;2024-03-07T13:54:36;14.73;;;4.53;;
75488;SDS011;64069;46.396;48.102;2024-03-07T14:10:57;7.80;;;2.92;;
75488;SDS011;64069;46.396;48.102;2024-03-07T14:14:01;7.40;;;3.10;;
75488;SDS011;64069;46.396;48.102;2024-03-07T14:28:01;10.00;;;3.28;;
75488;SDS011;64069;46.396;48.102;2024-03-07T14:30:52;7.50;;;3.20;;
75488;SDS011;64069;46.396;48.102;2024-03-07T14:33:32;5.28;;;2.35;;
75488;SDS011;64069;46.396;48.102;2024-03-07T14:36:19;5.75;;;1.65;;
75488;SDS011;64069;46.396;48.102;2024-03-07T14:39:03;6.93;;;2.63;;
75488;SDS011;64069;46.396;48.102;2024-03-07T14:44:14;6.53;;;2.33;;
75488;SDS011;64069;46.396;48.102;2024-03-07T14:46:41;6.70;;;2.40;;
75488;SDS011;64069;46.396;48.102;2024-03-07T14:49:09;8.63;;;2.67;;
75488;SDS011;64069;46.396;48.102;2024-03-07T14:51:41;14.38;;;3.85;;
75488;SDS011;64069;46.396;48.102;2024-03-07T14:54:08;6.57;;;2.28;;
75488;SDS011;64069;46.396;48.102;2024-03-07T14:56:34;8.40;;;3.28;;
75488;SDS011;64069;46.396;48.102;2024-03-07T14:59:00;8.70;;;2.42;;
75488;SDS011;64069;46.396;48.102;2024-03-07T15:01:29;26.77;;;7.22;;
75488;SDS011;64069;46.396;48.102;2024-03-07T15:03:58;13.15;;;4.30;;
75488;SDS011;64069;46.396;48.102;2024-03-07T15:06:26;8.88;;;3.53;;
75488;SDS011;64069;46.396;48.102;2024-03-07T15:08:52;11.07;;;3.05;;
75488;SDS011;64069;46.396;48.102;2024-03-07T15:11:34;8.82;;;4.13;;
75488;SDS011;64069;46.396;48.102;2024-03-07T15:14:06;9.45;;;4.43;;
75488;SDS011;64069;46.396;48.102;2024-03-07T15:16:34;8.90;;;4.18;;
75488;SDS011;64069;46.396;48.102;2024-03-07T15:19:03;13.45;;;4.38;;
75488;SDS011;64069;46.396;48.102;2024-03-07T15:21:30;8.30;;;3.72;;
75488;SDS011;64069;46.396;48.102;2024-03-07T15:23:57;13.52;;;6.65;;